Terminal Aerodrome Forecast
Issued by NWS

Current Version | Previous Version | Graphics & Text | Print | Product List | Glossary On
Versions: 1 2 3 4 5 6 7 8 9 10 11 12 13 14 15 16 17 18 19 20 21
000
FTUS41 KILN 270300 AAA
TAFLCK
TAF AMD
KLCK 270326Z 2703/2724 20008KT P6SM VCSH BKN035
      TEMPO 2703/2705 3SM -TSRA OVC025CB
     FM270700 20006KT P6SM VCSH SCT035 OVC080
     FM271700 21010G18KT P6SM -SHRA VCTS BKN035CB
     FM272300 27015G25KT P6SM VCSH BKN040=

USA.gov is the U.S. government's official web portal to all federal, state and local government web resources and services.